TKY87T VOBG-OPIS
Flight info
| Callsign | TKY87T |
|---|---|
| Flight time | 3h 12m |
| Altitude | 37000 |
| Route | MOTRI Q22 VIRAM W57 SAKRO Q22 HIA/N0457F360 W20 BUSBO/N0457F380 W20 PUKES Q24 DPN J24 ASARI L509 INDEK |
| Aircraft | B738/M-SDE2E3FGHIRWXY/LB1 |
Departure
| Time | 2026-05-05 17:33 |
|---|---|
| Airport | HAL Airport (VOBG) |
Arrival
| Time | 2026-05-05 20:46 |
|---|---|
| Airport | Islamabad International Airport (OPIS) |
| Time | Latitude | Longitude | Altitude | Speed | Heading |
|---|---|---|---|---|---|
| 2026-05-05 17:10 | 12.95343 | 77.66297 | 2920 ft | 0 kts | 359° |
| 2026-05-05 17:15 | 12.95327 | 77.66297 | 2918 ft | 4 kts | 358° |
| 2026-05-05 17:16 | 12.95301 | 77.66299 | 2919 ft | 3 kts | 354° |
| 2026-05-05 17:16 | 12.95298 | 77.66299 | 2919 ft | 1 kts | 354° |
| 2026-05-05 17:18 | 12.95300 | 77.66300 | 2919 ft | 1 kts | 8° |
| 2026-05-05 17:18 | 12.95300 | 77.66351 | 2921 ft | 17 kts | 124° |
| 2026-05-05 17:18 | 12.95241 | 77.66425 | 2921 ft | 10 kts | 85° |
| 2026-05-05 17:19 | 12.95244 | 77.66496 | 2921 ft | 10 kts | 88° |
| 2026-05-05 17:19 | 12.95247 | 77.66565 | 2922 ft | 9 kts | 88° |
| 2026-05-05 17:19 | 12.95251 | 77.66631 | 2922 ft | 9 kts | 85° |
| 2026-05-05 17:19 | 12.95256 | 77.66700 | 2922 ft | 11 kts | 85° |
| 2026-05-05 17:20 | 12.95263 | 77.66796 | 2923 ft | 16 kts | 85° |
| 2026-05-05 17:20 | 12.95270 | 77.66908 | 2924 ft | 15 kts | 86° |
| 2026-05-05 17:20 | 12.95279 | 77.67017 | 2924 ft | 16 kts | 85° |
| 2026-05-05 17:20 | 12.95288 | 77.67146 | 2925 ft | 19 kts | 85° |
| 2026-05-05 17:21 | 12.95251 | 77.67263 | 2925 ft | 18 kts | 118° |
| 2026-05-05 17:21 | 12.95236 | 77.67385 | 2926 ft | 17 kts | 83° |
| 2026-05-05 17:21 | 12.95249 | 77.67505 | 2924 ft | 17 kts | 84° |
| 2026-05-05 17:22 | 12.95270 | 77.67745 | 2928 ft | 17 kts | 85° |
| 2026-05-05 17:22 | 12.95281 | 77.67867 | 2929 ft | 17 kts | 85° |
| 2026-05-05 17:22 | 12.95291 | 77.67986 | 2926 ft | 17 kts | 84° |
| 2026-05-05 17:22 | 12.95302 | 77.68101 | 2930 ft | 16 kts | 84° |
| 2026-05-05 17:23 | 12.95312 | 77.68212 | 2931 ft | 15 kts | 84° |
| 2026-05-05 17:23 | 12.95322 | 77.68316 | 2931 ft | 10 kts | 84° |
| 2026-05-05 17:23 | 12.95322 | 77.68386 | 2932 ft | 10 kts | 109° |
| 2026-05-05 17:23 | 12.95278 | 77.68406 | 2930 ft | 2 kts | 174° |
| 2026-05-05 17:24 | 12.95274 | 77.68406 | 2928 ft | 0 kts | 174° |
| 2026-05-05 17:27 | 12.95272 | 77.68406 | 2929 ft | 1 kts | 174° |
| 2026-05-05 17:27 | 12.95249 | 77.68408 | 2932 ft | 5 kts | 175° |
| 2026-05-05 17:27 | 12.95210 | 77.68410 | 2933 ft | 8 kts | 180° |
| 2026-05-05 17:28 | 12.95152 | 77.68386 | 2930 ft | 10 kts | 234° |
| 2026-05-05 17:28 | 12.95140 | 77.68336 | 2931 ft | 0 kts | 264° |
| 2026-05-05 17:32 | 12.95140 | 77.68330 | 2931 ft | 0 kts | 264° |
| 2026-05-05 17:32 | 12.95134 | 77.68269 | 2930 ft | 35 kts | 264° |
| 2026-05-05 17:32 | 12.95089 | 77.67770 | 2924 ft | 104 kts | 264° |
| 2026-05-05 17:32 | 12.95005 | 77.66819 | 2924 ft | 161 kts | 265° |
| 2026-05-05 17:33 | 12.94914 | 77.65570 | 3336 ft | 179 kts | 265° |
| 2026-05-05 17:33 | 12.94816 | 77.64302 | 4110 ft | 183 kts | 264° |
| 2026-05-05 17:33 | 12.94710 | 77.63001 | 4764 ft | 187 kts | 264° |
| 2026-05-05 17:33 | 12.94598 | 77.61668 | 5420 ft | 189 kts | 267° |
| 2026-05-05 17:34 | 12.94816 | 77.60354 | 6089 ft | 186 kts | 299° |
| 2026-05-05 17:34 | 12.95636 | 77.59349 | 6665 ft | 191 kts | 328° |
| 2026-05-05 17:34 | 12.96934 | 77.58827 | 6854 ft | 211 kts | 356° |
| 2026-05-05 17:34 | 12.98424 | 77.59002 | 7123 ft | 222 kts | 22° |
| 2026-05-05 17:35 | 12.99866 | 77.59631 | 7585 ft | 228 kts | 19° |
| 2026-05-05 17:35 | 13.01383 | 77.60126 | 8169 ft | 229 kts | 18° |
| 2026-05-05 17:35 | 13.02886 | 77.60672 | 8768 ft | 230 kts | 27° |
| 2026-05-05 17:35 | 13.04298 | 77.61503 | 9122 ft | 244 kts | 21° |
| 2026-05-05 17:36 | 13.06028 | 77.61929 | 9297 ft | 269 kts | 11° |
| 2026-05-05 17:36 | 13.07923 | 77.62313 | 9753 ft | 282 kts | 12° |
| 2026-05-05 17:36 | 13.09863 | 77.62734 | 10334 ft | 290 kts | 13° |
| 2026-05-05 17:36 | 13.11914 | 77.63205 | 10497 ft | 314 kts | 13° |
| 2026-05-05 17:37 | 13.14105 | 77.63732 | 10738 ft | 331 kts | 14° |
| 2026-05-05 17:37 | 13.16372 | 77.64295 | 11265 ft | 338 kts | 14° |
| 2026-05-05 17:37 | 13.18637 | 77.64871 | 11923 ft | 340 kts | 14° |
| 2026-05-05 17:37 | 13.20940 | 77.65465 | 12611 ft | 343 kts | 14° |
| 2026-05-05 17:38 | 13.23264 | 77.66071 | 13321 ft | 345 kts | 14° |
| 2026-05-05 17:38 | 13.25603 | 77.66684 | 13982 ft | 349 kts | 14° |
| 2026-05-05 17:38 | 13.27967 | 77.67306 | 14572 ft | 354 kts | 14° |
| 2026-05-05 17:38 | 13.30371 | 77.67940 | 15151 ft | 359 kts | 14° |
| 2026-05-05 17:39 | 13.32809 | 77.68583 | 15737 ft | 364 kts | 14° |
| 2026-05-05 17:39 | 13.35275 | 77.69235 | 16322 ft | 369 kts | 14° |
| 2026-05-05 17:39 | 13.37781 | 77.69897 | 16896 ft | 374 kts | 14° |
| 2026-05-05 17:39 | 13.40318 | 77.70568 | 17476 ft | 378 kts | 14° |
| 2026-05-05 17:40 | 13.42884 | 77.71247 | 18076 ft | 383 kts | 14° |
| 2026-05-05 17:40 | 13.45480 | 77.71934 | 18566 ft | 388 kts | 14° |
| 2026-05-05 17:40 | 13.48113 | 77.72631 | 19015 ft | 393 kts | 14° |
| 2026-05-05 17:40 | 13.50772 | 77.73334 | 19498 ft | 397 kts | 14° |
| 2026-05-05 17:41 | 13.53458 | 77.74045 | 19973 ft | 401 kts | 14° |
| 2026-05-05 17:41 | 13.56143 | 77.74756 | 20442 ft | 405 kts | 13° |
| 2026-05-05 17:41 | 13.58891 | 77.75484 | 20834 ft | 410 kts | 13° |
| 2026-05-05 17:41 | 13.61673 | 77.76220 | 21274 ft | 414 kts | 13° |
| 2026-05-05 17:42 | 13.64483 | 77.76965 | 21719 ft | 417 kts | 13° |
| 2026-05-05 17:42 | 13.67310 | 77.77714 | 22150 ft | 421 kts | 13° |
| 2026-05-05 17:42 | 13.70167 | 77.78472 | 22562 ft | 425 kts | 13° |
| 2026-05-05 17:42 | 13.73043 | 77.79234 | 22969 ft | 429 kts | 13° |
| 2026-05-05 17:43 | 13.75945 | 77.80004 | 23364 ft | 432 kts | 12° |
| 2026-05-05 17:43 | 13.78869 | 77.80780 | 23710 ft | 435 kts | 12° |
| 2026-05-05 17:43 | 13.81778 | 77.81552 | 24049 ft | 438 kts | 12° |
| 2026-05-05 17:43 | 13.84731 | 77.82337 | 24425 ft | 439 kts | 13° |
| 2026-05-05 17:44 | 13.87691 | 77.83123 | 24779 ft | 441 kts | 13° |
| 2026-05-05 17:44 | 13.90667 | 77.83914 | 25130 ft | 443 kts | 13° |
| 2026-05-05 17:44 | 13.93657 | 77.84708 | 25452 ft | 445 kts | 13° |
| 2026-05-05 17:44 | 13.96665 | 77.85508 | 25773 ft | 447 kts | 13° |
| 2026-05-05 17:45 | 13.99686 | 77.86311 | 26109 ft | 449 kts | 13° |
| 2026-05-05 17:45 | 14.02717 | 77.87117 | 26443 ft | 450 kts | 13° |
| 2026-05-05 17:45 | 14.05785 | 77.87824 | 26763 ft | 452 kts | 9° |
| 2026-05-05 17:45 | 14.08887 | 77.88382 | 27080 ft | 453 kts | 8° |
| 2026-05-05 17:46 | 14.12012 | 77.88882 | 27385 ft | 455 kts | 7° |
| 2026-05-05 17:46 | 14.15153 | 77.89375 | 27678 ft | 457 kts | 7° |
| 2026-05-05 17:46 | 14.18263 | 77.89874 | 27978 ft | 459 kts | 8° |
| 2026-05-05 17:46 | 14.21426 | 77.90398 | 28256 ft | 461 kts | 8° |
| 2026-05-05 17:47 | 14.24593 | 77.90934 | 28553 ft | 463 kts | 8° |
| 2026-05-05 17:47 | 14.27783 | 77.91482 | 28846 ft | 465 kts | 8° |
| 2026-05-05 17:47 | 14.30979 | 77.92034 | 29139 ft | 466 kts | 8° |
| 2026-05-05 17:47 | 14.34179 | 77.92586 | 29401 ft | 468 kts | 8° |
| 2026-05-05 17:48 | 14.37400 | 77.93142 | 29657 ft | 470 kts | 8° |
| 2026-05-05 17:48 | 14.40634 | 77.93700 | 29901 ft | 472 kts | 8° |
| 2026-05-05 17:48 | 14.43878 | 77.94258 | 30122 ft | 474 kts | 8° |
| 2026-05-05 17:48 | 14.47132 | 77.94819 | 30334 ft | 475 kts | 8° |
| 2026-05-05 17:49 | 14.50397 | 77.95378 | 30532 ft | 476 kts | 8° |
| 2026-05-05 17:49 | 14.53676 | 77.95933 | 30729 ft | 478 kts | 8° |
| 2026-05-05 17:49 | 14.56966 | 77.96489 | 30914 ft | 480 kts | 8° |
| 2026-05-05 17:49 | 14.60267 | 77.97045 | 31179 ft | 480 kts | 8° |
| 2026-05-05 17:50 | 14.63558 | 77.97601 | 31513 ft | 478 kts | 8° |
| 2026-05-05 17:50 | 14.66835 | 77.98156 | 31874 ft | 476 kts | 8° |
| 2026-05-05 17:50 | 14.70094 | 77.98708 | 32187 ft | 475 kts | 8° |
| 2026-05-05 17:50 | 14.73358 | 77.99261 | 32446 ft | 476 kts | 8° |
| 2026-05-05 17:51 | 14.76630 | 77.99816 | 32719 ft | 476 kts | 8° |
| 2026-05-05 17:51 | 14.79887 | 78.00369 | 33035 ft | 475 kts | 8° |
| 2026-05-05 17:51 | 14.83151 | 78.00923 | 33367 ft | 474 kts | 8° |
| 2026-05-05 17:51 | 14.86397 | 78.01474 | 33671 ft | 473 kts | 8° |
| 2026-05-05 17:52 | 14.89611 | 78.02020 | 33954 ft | 473 kts | 8° |
| 2026-05-05 17:52 | 14.92854 | 78.02570 | 34229 ft | 473 kts | 8° |
| 2026-05-05 17:52 | 14.96102 | 78.03122 | 34518 ft | 472 kts | 8° |
| 2026-05-05 17:52 | 14.99335 | 78.03672 | 34815 ft | 470 kts | 8° |
| 2026-05-05 17:53 | 15.02562 | 78.04221 | 35093 ft | 470 kts | 8° |
| 2026-05-05 17:53 | 15.05789 | 78.04769 | 35366 ft | 469 kts | 8° |
| 2026-05-05 17:53 | 15.09008 | 78.05317 | 35642 ft | 468 kts | 8° |
| 2026-05-05 17:53 | 15.12220 | 78.05864 | 35924 ft | 467 kts | 8° |
| 2026-05-05 17:54 | 15.15428 | 78.06410 | 36200 ft | 467 kts | 8° |
| 2026-05-05 17:54 | 15.18630 | 78.06955 | 36462 ft | 466 kts | 8° |
| 2026-05-05 17:54 | 15.21828 | 78.07500 | 36719 ft | 465 kts | 8° |
| 2026-05-05 17:54 | 15.25028 | 78.08045 | 36917 ft | 466 kts | 8° |
| 2026-05-05 17:55 | 15.28208 | 78.08587 | 36901 ft | 470 kts | 8° |
| 2026-05-05 17:55 | 15.34664 | 78.09689 | 36910 ft | 469 kts | 8° |
| 2026-05-05 17:56 | 15.41076 | 78.10756 | 36891 ft | 464 kts | 7° |
| 2026-05-05 17:56 | 15.47443 | 78.11783 | 36902 ft | 462 kts | 7° |
| 2026-05-05 17:57 | 15.53785 | 78.12810 | 36907 ft | 461 kts | 8° |
| 2026-05-05 17:57 | 15.60120 | 78.13842 | 36905 ft | 461 kts | 8° |
| 2026-05-05 17:58 | 15.66454 | 78.14876 | 36907 ft | 461 kts | 8° |
| 2026-05-05 17:58 | 15.72801 | 78.15911 | 36907 ft | 463 kts | 7° |
| 2026-05-05 17:59 | 15.79177 | 78.16947 | 36906 ft | 465 kts | 7° |
| 2026-05-05 17:59 | 15.84196 | 78.17762 | 36906 ft | 466 kts | 7° |
| 2026-05-05 18:00 | 15.90678 | 78.18816 | 36909 ft | 467 kts | 7° |
| 2026-05-05 18:00 | 15.97122 | 78.19865 | 36911 ft | 471 kts | 7° |
| 2026-05-05 18:01 | 16.03623 | 78.20924 | 36913 ft | 473 kts | 7° |
| 2026-05-05 18:01 | 16.10089 | 78.21979 | 36894 ft | 466 kts | 7° |
| 2026-05-05 18:02 | 16.16462 | 78.23020 | 36913 ft | 462 kts | 7° |
| 2026-05-05 18:02 | 16.22811 | 78.24056 | 36912 ft | 462 kts | 7° |
| 2026-05-05 18:03 | 16.29155 | 78.25092 | 36908 ft | 461 kts | 7° |
| 2026-05-05 18:03 | 16.35497 | 78.26128 | 36914 ft | 462 kts | 7° |
| 2026-05-05 18:04 | 16.41848 | 78.27167 | 36913 ft | 462 kts | 7° |
| 2026-05-05 18:04 | 16.48202 | 78.28207 | 36912 ft | 463 kts | 7° |
| 2026-05-05 18:05 | 16.54524 | 78.29243 | 36915 ft | 463 kts | 7° |
| 2026-05-05 18:05 | 16.60928 | 78.30296 | 36922 ft | 463 kts | 7° |
| 2026-05-05 18:06 | 16.67251 | 78.31342 | 36918 ft | 463 kts | 7° |
| 2026-05-05 18:06 | 16.73616 | 78.32397 | 36935 ft | 463 kts | 7° |
| 2026-05-05 18:07 | 16.79990 | 78.33454 | 36923 ft | 463 kts | 7° |
| 2026-05-05 18:07 | 16.86357 | 78.34509 | 36929 ft | 463 kts | 7° |
| 2026-05-05 18:08 | 16.92725 | 78.35566 | 36933 ft | 463 kts | 7° |
| 2026-05-05 18:08 | 16.99095 | 78.36624 | 36943 ft | 463 kts | 7° |
| 2026-05-05 18:09 | 17.05462 | 78.37682 | 36955 ft | 463 kts | 7° |
| 2026-05-05 18:09 | 17.11824 | 78.38740 | 36961 ft | 463 kts | 7° |
| 2026-05-05 18:10 | 17.18187 | 78.39798 | 36967 ft | 463 kts | 7° |
| 2026-05-05 18:10 | 17.24577 | 78.40447 | 36959 ft | 460 kts | 354° |
| 2026-05-05 18:11 | 17.30894 | 78.39625 | 36969 ft | 458 kts | 349° |
| 2026-05-05 18:11 | 17.37203 | 78.38671 | 36932 ft | 458 kts | 350° |
| 2026-05-05 18:12 | 17.43481 | 78.37764 | 36941 ft | 458 kts | 350° |
| 2026-05-05 18:12 | 17.49837 | 78.36876 | 36931 ft | 458 kts | 350° |
| 2026-05-05 18:13 | 17.55089 | 78.36149 | 36930 ft | 458 kts | 350° |
| 2026-05-05 18:13 | 17.62440 | 78.35130 | 36929 ft | 458 kts | 350° |
| 2026-05-05 18:14 | 17.67739 | 78.34393 | 36929 ft | 458 kts | 350° |
| 2026-05-05 18:14 | 17.74015 | 78.33519 | 36927 ft | 458 kts | 350° |
| 2026-05-05 18:15 | 17.80335 | 78.32639 | 36927 ft | 458 kts | 350° |
| 2026-05-05 18:15 | 17.86650 | 78.31759 | 36921 ft | 458 kts | 350° |
| 2026-05-05 18:16 | 17.92968 | 78.30878 | 36920 ft | 458 kts | 350° |
| 2026-05-05 18:16 | 17.99286 | 78.29996 | 36913 ft | 457 kts | 350° |
| 2026-05-05 18:17 | 18.05597 | 78.29118 | 36912 ft | 457 kts | 350° |
| 2026-05-05 18:17 | 18.11876 | 78.28250 | 36900 ft | 458 kts | 349° |
| 2026-05-05 18:18 | 18.18189 | 78.27377 | 36908 ft | 458 kts | 349° |
| 2026-05-05 18:18 | 18.24508 | 78.26502 | 36904 ft | 458 kts | 349° |
| 2026-05-05 18:19 | 18.30836 | 78.25624 | 36904 ft | 459 kts | 349° |
| 2026-05-05 18:19 | 18.37167 | 78.24746 | 36888 ft | 459 kts | 349° |
| 2026-05-05 18:20 | 18.43500 | 78.23866 | 36888 ft | 459 kts | 349° |
| 2026-05-05 18:20 | 18.49837 | 78.22985 | 36879 ft | 459 kts | 349° |
| 2026-05-05 18:21 | 18.56183 | 78.22103 | 36876 ft | 460 kts | 349° |
| 2026-05-05 18:21 | 18.62525 | 78.21220 | 36867 ft | 460 kts | 349° |
| 2026-05-05 18:22 | 18.68833 | 78.20341 | 36863 ft | 460 kts | 349° |
| 2026-05-05 18:22 | 18.75178 | 78.19456 | 36865 ft | 460 kts | 349° |
| 2026-05-05 18:23 | 18.81531 | 78.18570 | 36850 ft | 460 kts | 349° |
| 2026-05-05 18:23 | 18.87876 | 78.17684 | 36846 ft | 460 kts | 349° |
| 2026-05-05 18:24 | 18.94228 | 78.16797 | 36843 ft | 460 kts | 349° |
| 2026-05-05 18:24 | 19.00585 | 78.15908 | 36844 ft | 460 kts | 349° |
| 2026-05-05 18:25 | 19.06893 | 78.15025 | 36842 ft | 460 kts | 349° |
| 2026-05-05 18:25 | 19.13247 | 78.14135 | 36841 ft | 460 kts | 349° |
| 2026-05-05 18:26 | 19.19590 | 78.13245 | 36845 ft | 461 kts | 349° |
| 2026-05-05 18:26 | 19.25951 | 78.12347 | 36840 ft | 461 kts | 348° |
| 2026-05-05 18:27 | 19.32261 | 78.11199 | 36850 ft | 460 kts | 346° |
| 2026-05-05 18:27 | 19.38594 | 78.09923 | 37053 ft | 464 kts | 346° |
| 2026-05-05 18:27 | 19.41761 | 78.09293 | 37396 ft | 462 kts | 346° |
| 2026-05-05 18:28 | 19.48052 | 78.08068 | 37848 ft | 461 kts | 346° |
| 2026-05-05 18:28 | 19.54402 | 78.06845 | 37844 ft | 464 kts | 346° |
| 2026-05-05 18:29 | 19.60734 | 78.05633 | 37836 ft | 460 kts | 346° |
| 2026-05-05 18:29 | 19.66964 | 78.04414 | 37835 ft | 456 kts | 345° |
| 2026-05-05 18:30 | 19.73133 | 78.02964 | 37840 ft | 453 kts | 343° |
| 2026-05-05 18:30 | 19.79269 | 78.01449 | 37843 ft | 453 kts | 343° |
| 2026-05-05 18:31 | 19.85420 | 77.99954 | 37841 ft | 453 kts | 343° |
| 2026-05-05 18:31 | 19.91597 | 77.98475 | 37838 ft | 455 kts | 343° |
| 2026-05-05 18:32 | 19.97788 | 77.97001 | 37840 ft | 457 kts | 344° |
| 2026-05-05 18:32 | 20.04012 | 77.95519 | 37849 ft | 459 kts | 343° |
| 2026-05-05 18:33 | 20.10261 | 77.94030 | 37844 ft | 460 kts | 344° |
| 2026-05-05 18:33 | 20.16476 | 77.92547 | 37832 ft | 461 kts | 343° |
| 2026-05-05 18:34 | 20.22726 | 77.91055 | 37836 ft | 460 kts | 344° |
| 2026-05-05 18:34 | 20.28967 | 77.89564 | 37835 ft | 459 kts | 343° |
| 2026-05-05 18:35 | 20.35183 | 77.88077 | 37833 ft | 457 kts | 343° |
| 2026-05-05 18:35 | 20.41389 | 77.86591 | 37846 ft | 455 kts | 344° |
| 2026-05-05 18:36 | 20.47556 | 77.85113 | 37837 ft | 454 kts | 344° |
| 2026-05-05 18:36 | 20.53709 | 77.83637 | 37835 ft | 452 kts | 344° |
| 2026-05-05 18:37 | 20.59798 | 77.82176 | 37830 ft | 450 kts | 344° |
| 2026-05-05 18:37 | 20.65937 | 77.80701 | 37841 ft | 449 kts | 344° |
| 2026-05-05 18:38 | 20.72029 | 77.79236 | 37847 ft | 448 kts | 343° |
| 2026-05-05 18:38 | 20.78061 | 77.77784 | 37839 ft | 447 kts | 343° |
| 2026-05-05 18:39 | 20.84128 | 77.76323 | 37829 ft | 446 kts | 343° |
| 2026-05-05 18:39 | 20.90189 | 77.74862 | 37831 ft | 446 kts | 343° |
| 2026-05-05 18:40 | 20.96250 | 77.73400 | 37856 ft | 446 kts | 343° |
| 2026-05-05 18:40 | 21.02305 | 77.71938 | 37854 ft | 446 kts | 343° |
| 2026-05-05 18:41 | 21.08366 | 77.70473 | 37847 ft | 446 kts | 343° |
| 2026-05-05 18:41 | 21.14406 | 77.69013 | 37859 ft | 445 kts | 343° |
| 2026-05-05 18:42 | 21.20453 | 77.67549 | 37861 ft | 445 kts | 343° |
| 2026-05-05 18:42 | 21.26481 | 77.66089 | 37870 ft | 444 kts | 343° |
| 2026-05-05 18:43 | 21.32500 | 77.64630 | 37870 ft | 443 kts | 343° |
| 2026-05-05 18:43 | 21.38475 | 77.63180 | 37885 ft | 442 kts | 343° |
| 2026-05-05 18:44 | 21.44478 | 77.61722 | 37877 ft | 442 kts | 343° |
| 2026-05-05 18:44 | 21.50487 | 77.60262 | 37871 ft | 441 kts | 343° |
| 2026-05-05 18:45 | 21.56461 | 77.58809 | 37870 ft | 440 kts | 343° |
| 2026-05-05 18:45 | 21.62428 | 77.57356 | 37885 ft | 438 kts | 343° |
| 2026-05-05 18:46 | 21.68364 | 77.55910 | 37891 ft | 437 kts | 343° |
| 2026-05-05 18:46 | 21.74256 | 77.54473 | 37890 ft | 436 kts | 343° |
| 2026-05-05 18:47 | 21.80180 | 77.53027 | 37899 ft | 436 kts | 343° |
| 2026-05-05 18:47 | 21.86103 | 77.51579 | 37891 ft | 436 kts | 343° |
| 2026-05-05 18:48 | 21.92025 | 77.50131 | 37895 ft | 436 kts | 343° |
| 2026-05-05 18:48 | 21.97954 | 77.48680 | 37896 ft | 437 kts | 342° |
| 2026-05-05 18:49 | 22.03883 | 77.47228 | 37892 ft | 438 kts | 342° |
| 2026-05-05 18:49 | 22.09840 | 77.45767 | 37884 ft | 439 kts | 342° |
| 2026-05-05 18:50 | 22.15797 | 77.44306 | 37886 ft | 439 kts | 342° |
| 2026-05-05 18:50 | 22.21712 | 77.42854 | 37890 ft | 439 kts | 342° |
| 2026-05-05 18:51 | 22.27686 | 77.41386 | 37882 ft | 440 kts | 342° |
| 2026-05-05 18:51 | 22.33655 | 77.39918 | 37886 ft | 440 kts | 342° |
| 2026-05-05 18:52 | 22.39627 | 77.38447 | 37878 ft | 440 kts | 342° |
| 2026-05-05 18:52 | 22.45593 | 77.36978 | 37877 ft | 439 kts | 342° |
| 2026-05-05 18:53 | 22.51551 | 77.35508 | 37876 ft | 439 kts | 342° |
| 2026-05-05 18:53 | 22.57507 | 77.34038 | 37875 ft | 438 kts | 342° |
| 2026-05-05 18:54 | 22.63416 | 77.32579 | 37898 ft | 438 kts | 341° |
| 2026-05-05 18:54 | 22.69390 | 77.31101 | 37883 ft | 437 kts | 341° |
| 2026-05-05 18:55 | 22.75282 | 77.29643 | 37887 ft | 437 kts | 341° |
| 2026-05-05 18:55 | 22.81205 | 77.28176 | 37887 ft | 436 kts | 341° |
| 2026-05-05 18:56 | 22.87119 | 77.26709 | 37895 ft | 436 kts | 341° |
| 2026-05-05 18:56 | 22.93031 | 77.25242 | 37909 ft | 436 kts | 341° |
| 2026-05-05 18:57 | 22.98941 | 77.23774 | 37900 ft | 436 kts | 341° |
| 2026-05-05 18:57 | 23.04823 | 77.22311 | 37895 ft | 435 kts | 341° |
| 2026-05-05 18:58 | 23.10727 | 77.20842 | 37907 ft | 435 kts | 341° |
| 2026-05-05 18:58 | 23.16625 | 77.19373 | 37905 ft | 435 kts | 341° |
| 2026-05-05 18:59 | 23.22528 | 77.17902 | 37943 ft | 435 kts | 341° |
| 2026-05-05 18:59 | 23.28421 | 77.16431 | 37916 ft | 434 kts | 341° |
| 2026-05-05 19:00 | 23.33321 | 77.15208 | 37909 ft | 434 kts | 341° |
| 2026-05-05 19:00 | 23.39199 | 77.13739 | 37911 ft | 433 kts | 341° |
| 2026-05-05 19:01 | 23.45068 | 77.12271 | 37908 ft | 432 kts | 341° |
| 2026-05-05 19:01 | 23.50926 | 77.10804 | 37907 ft | 431 kts | 341° |
| 2026-05-05 19:02 | 23.56771 | 77.09339 | 37910 ft | 431 kts | 341° |
| 2026-05-05 19:02 | 23.62609 | 77.07875 | 37909 ft | 430 kts | 341° |
| 2026-05-05 19:03 | 23.68431 | 77.06413 | 37906 ft | 429 kts | 341° |
| 2026-05-05 19:03 | 23.74240 | 77.04954 | 37903 ft | 428 kts | 341° |
| 2026-05-05 19:04 | 23.80045 | 77.03493 | 37906 ft | 427 kts | 341° |
| 2026-05-05 19:04 | 23.85803 | 77.02044 | 37918 ft | 427 kts | 341° |
| 2026-05-05 19:05 | 23.91593 | 77.00584 | 37905 ft | 427 kts | 341° |
| 2026-05-05 19:05 | 23.97389 | 76.99122 | 37906 ft | 427 kts | 341° |
| 2026-05-05 19:06 | 24.03179 | 76.97660 | 37912 ft | 427 kts | 341° |
| 2026-05-05 19:06 | 24.08980 | 76.96194 | 37909 ft | 428 kts | 341° |
| 2026-05-05 19:07 | 24.14787 | 76.94725 | 37936 ft | 428 kts | 340° |
| 2026-05-05 19:07 | 24.20592 | 76.93256 | 37907 ft | 429 kts | 340° |
| 2026-05-05 19:08 | 24.26406 | 76.91782 | 37899 ft | 429 kts | 340° |
| 2026-05-05 19:08 | 24.32218 | 76.90309 | 37900 ft | 428 kts | 340° |
| 2026-05-05 19:09 | 24.38021 | 76.88836 | 37901 ft | 428 kts | 340° |
| 2026-05-05 19:09 | 24.43828 | 76.87360 | 37900 ft | 428 kts | 340° |
| 2026-05-05 19:10 | 24.49624 | 76.85886 | 37902 ft | 428 kts | 340° |
| 2026-05-05 19:10 | 24.55385 | 76.84419 | 37903 ft | 427 kts | 340° |
| 2026-05-05 19:11 | 24.61173 | 76.82944 | 37900 ft | 427 kts | 340° |
| 2026-05-05 19:11 | 24.66954 | 76.81470 | 37901 ft | 426 kts | 340° |
| 2026-05-05 19:12 | 24.72722 | 76.79997 | 37901 ft | 425 kts | 340° |
| 2026-05-05 19:12 | 24.78481 | 76.78526 | 37898 ft | 424 kts | 340° |
| 2026-05-05 19:13 | 24.84235 | 76.77054 | 37898 ft | 424 kts | 340° |
| 2026-05-05 19:13 | 24.89949 | 76.75590 | 37900 ft | 424 kts | 340° |
| 2026-05-05 19:14 | 24.95697 | 76.74117 | 37898 ft | 424 kts | 340° |
| 2026-05-05 19:14 | 25.01443 | 76.72643 | 37900 ft | 424 kts | 340° |
| 2026-05-05 19:15 | 25.07191 | 76.71166 | 37906 ft | 424 kts | 339° |
| 2026-05-05 19:15 | 25.12953 | 76.69684 | 37897 ft | 426 kts | 339° |
| 2026-05-05 19:16 | 25.18729 | 76.68198 | 37894 ft | 427 kts | 339° |
| 2026-05-05 19:16 | 25.24513 | 76.66709 | 37895 ft | 427 kts | 339° |
| 2026-05-05 19:17 | 25.30309 | 76.65215 | 37895 ft | 428 kts | 339° |
| 2026-05-05 19:17 | 25.36108 | 76.63719 | 37902 ft | 428 kts | 339° |
| 2026-05-05 19:18 | 25.41910 | 76.62220 | 37895 ft | 428 kts | 339° |
| 2026-05-05 19:18 | 25.47707 | 76.60722 | 37888 ft | 427 kts | 339° |
| 2026-05-05 19:19 | 25.53489 | 76.59226 | 37887 ft | 427 kts | 339° |
| 2026-05-05 19:19 | 25.59263 | 76.57731 | 37887 ft | 426 kts | 339° |
| 2026-05-05 19:20 | 25.64990 | 76.56246 | 37910 ft | 425 kts | 339° |
| 2026-05-05 19:20 | 25.70782 | 76.54742 | 37896 ft | 424 kts | 339° |
| 2026-05-05 19:21 | 25.76492 | 76.53258 | 37888 ft | 424 kts | 339° |
| 2026-05-05 19:21 | 25.82239 | 76.51763 | 37890 ft | 423 kts | 339° |
| 2026-05-05 19:22 | 25.87966 | 76.50272 | 37887 ft | 423 kts | 339° |
| 2026-05-05 19:22 | 25.93694 | 76.48780 | 37913 ft | 422 kts | 339° |
| 2026-05-05 19:23 | 25.99413 | 76.47287 | 37900 ft | 422 kts | 339° |
| 2026-05-05 19:23 | 26.05127 | 76.45794 | 37889 ft | 422 kts | 339° |
| 2026-05-05 19:24 | 26.10849 | 76.44299 | 37899 ft | 422 kts | 339° |
| 2026-05-05 19:24 | 26.16561 | 76.42805 | 37897 ft | 421 kts | 339° |
| 2026-05-05 19:25 | 26.22238 | 76.41318 | 37936 ft | 421 kts | 339° |
| 2026-05-05 19:25 | 26.27950 | 76.39819 | 37911 ft | 422 kts | 339° |
| 2026-05-05 19:26 | 26.33669 | 76.38318 | 37902 ft | 422 kts | 339° |
| 2026-05-05 19:26 | 26.39390 | 76.36815 | 37902 ft | 422 kts | 339° |
| 2026-05-05 19:27 | 26.45114 | 76.35310 | 37909 ft | 423 kts | 339° |
| 2026-05-05 19:27 | 26.50849 | 76.33800 | 37910 ft | 423 kts | 339° |
| 2026-05-05 19:28 | 26.56588 | 76.32287 | 37916 ft | 424 kts | 339° |
| 2026-05-05 19:28 | 26.62291 | 76.30784 | 37913 ft | 424 kts | 339° |
| 2026-05-05 19:29 | 26.68040 | 76.29266 | 37911 ft | 424 kts | 339° |
| 2026-05-05 19:29 | 26.73782 | 76.27748 | 37913 ft | 424 kts | 339° |
| 2026-05-05 19:30 | 26.79534 | 76.26226 | 37915 ft | 424 kts | 339° |
| 2026-05-05 19:30 | 26.85275 | 76.24705 | 37920 ft | 424 kts | 339° |
| 2026-05-05 19:31 | 26.91018 | 76.23183 | 37913 ft | 423 kts | 339° |
| 2026-05-05 19:31 | 26.96751 | 76.21661 | 37908 ft | 423 kts | 339° |
| 2026-05-05 19:32 | 27.02468 | 76.20142 | 37923 ft | 422 kts | 339° |
| 2026-05-05 19:32 | 27.08143 | 76.18633 | 37918 ft | 422 kts | 339° |
| 2026-05-05 19:33 | 27.13853 | 76.17111 | 37929 ft | 422 kts | 339° |
| 2026-05-05 19:33 | 27.19571 | 76.15587 | 37921 ft | 422 kts | 339° |
| 2026-05-05 19:34 | 27.25283 | 76.14063 | 37910 ft | 422 kts | 339° |
| 2026-05-05 19:35 | 27.33847 | 76.11775 | 37913 ft | 421 kts | 339° |
| 2026-05-05 19:35 | 27.39555 | 76.10248 | 37935 ft | 421 kts | 339° |
| 2026-05-05 19:36 | 27.45259 | 76.08720 | 37919 ft | 421 kts | 339° |
| 2026-05-05 19:36 | 27.50926 | 76.07200 | 37915 ft | 421 kts | 339° |
| 2026-05-05 19:37 | 27.56627 | 76.05670 | 37918 ft | 421 kts | 339° |
| 2026-05-05 19:37 | 27.62337 | 76.04136 | 37909 ft | 421 kts | 339° |
| 2026-05-05 19:38 | 27.68037 | 76.02603 | 37910 ft | 421 kts | 339° |
| 2026-05-05 19:38 | 27.73740 | 76.01067 | 37909 ft | 421 kts | 339° |
| 2026-05-05 19:39 | 27.79447 | 75.99529 | 37904 ft | 422 kts | 339° |
| 2026-05-05 19:39 | 27.85154 | 75.97989 | 37906 ft | 422 kts | 339° |
| 2026-05-05 19:40 | 27.90874 | 75.96444 | 37902 ft | 422 kts | 339° |
| 2026-05-05 19:40 | 27.96559 | 75.94906 | 37906 ft | 423 kts | 339° |
| 2026-05-05 19:41 | 28.02281 | 75.93357 | 37900 ft | 423 kts | 339° |
| 2026-05-05 19:41 | 28.08005 | 75.91806 | 37887 ft | 423 kts | 339° |
| 2026-05-05 19:42 | 28.13723 | 75.90255 | 37887 ft | 422 kts | 339° |
| 2026-05-05 19:42 | 28.19414 | 75.88710 | 37882 ft | 422 kts | 339° |
| 2026-05-05 19:43 | 28.25127 | 75.87156 | 37890 ft | 423 kts | 339° |
| 2026-05-05 19:43 | 28.30847 | 75.85599 | 37881 ft | 422 kts | 339° |
| 2026-05-05 19:44 | 28.36568 | 75.84040 | 37882 ft | 422 kts | 339° |
| 2026-05-05 19:44 | 28.42282 | 75.82481 | 37875 ft | 422 kts | 339° |
| 2026-05-05 19:45 | 28.47992 | 75.80921 | 37873 ft | 422 kts | 339° |
| 2026-05-05 19:45 | 28.53704 | 75.79359 | 37872 ft | 422 kts | 340° |
| 2026-05-05 19:46 | 28.59387 | 75.77804 | 37865 ft | 422 kts | 339° |
| 2026-05-05 19:46 | 28.65094 | 75.76240 | 37865 ft | 422 kts | 339° |
| 2026-05-05 19:47 | 28.70798 | 75.74676 | 37867 ft | 421 kts | 339° |
| 2026-05-05 19:47 | 28.76488 | 75.73113 | 37860 ft | 421 kts | 339° |
| 2026-05-05 19:48 | 28.82186 | 75.71546 | 37866 ft | 421 kts | 340° |
| 2026-05-05 19:48 | 28.87880 | 75.69979 | 37859 ft | 420 kts | 340° |
| 2026-05-05 19:49 | 28.92606 | 75.68677 | 37859 ft | 420 kts | 340° |
| 2026-05-05 19:49 | 28.98282 | 75.67111 | 37863 ft | 419 kts | 340° |
| 2026-05-05 19:50 | 29.03954 | 75.65545 | 37866 ft | 419 kts | 340° |
| 2026-05-05 19:50 | 29.09620 | 75.63978 | 37867 ft | 419 kts | 340° |
| 2026-05-05 19:51 | 29.15288 | 75.62409 | 37859 ft | 418 kts | 340° |
| 2026-05-05 19:51 | 29.20944 | 75.60842 | 37863 ft | 418 kts | 340° |
| 2026-05-05 19:52 | 29.26591 | 75.59276 | 37866 ft | 417 kts | 340° |
| 2026-05-05 19:52 | 29.32235 | 75.57709 | 37873 ft | 417 kts | 340° |
| 2026-05-05 19:53 | 29.37836 | 75.56151 | 37879 ft | 417 kts | 340° |
| 2026-05-05 19:53 | 29.43471 | 75.54582 | 37869 ft | 417 kts | 340° |
| 2026-05-05 19:54 | 29.49107 | 75.53012 | 37878 ft | 416 kts | 340° |
| 2026-05-05 19:54 | 29.54733 | 75.51442 | 37876 ft | 416 kts | 340° |
| 2026-05-05 19:55 | 29.60360 | 75.49871 | 37922 ft | 415 kts | 340° |
| 2026-05-05 19:55 | 29.65984 | 75.48297 | 37888 ft | 416 kts | 340° |
| 2026-05-05 19:56 | 29.71584 | 75.46730 | 37877 ft | 416 kts | 340° |
| 2026-05-05 19:56 | 29.77206 | 75.45155 | 37879 ft | 415 kts | 340° |
| 2026-05-05 19:57 | 29.82819 | 75.43580 | 37879 ft | 415 kts | 340° |
| 2026-05-05 19:57 | 29.88434 | 75.42003 | 37897 ft | 414 kts | 340° |
| 2026-05-05 19:58 | 29.94036 | 75.40427 | 37881 ft | 414 kts | 340° |
| 2026-05-05 19:58 | 29.99592 | 75.38863 | 37878 ft | 413 kts | 340° |
| 2026-05-05 19:59 | 30.05176 | 75.37289 | 37878 ft | 412 kts | 340° |
| 2026-05-05 19:59 | 30.10741 | 75.35719 | 37879 ft | 411 kts | 340° |
| 2026-05-05 20:00 | 30.16295 | 75.34149 | 37888 ft | 411 kts | 340° |
| 2026-05-05 20:00 | 30.21846 | 75.32578 | 37882 ft | 411 kts | 340° |
| 2026-05-05 20:01 | 30.27402 | 75.31004 | 37874 ft | 411 kts | 340° |
| 2026-05-05 20:01 | 30.32955 | 75.29430 | 37874 ft | 411 kts | 340° |
| 2026-05-05 20:02 | 30.38501 | 75.27855 | 37870 ft | 411 kts | 340° |
| 2026-05-05 20:02 | 30.44051 | 75.26278 | 37870 ft | 411 kts | 340° |
| 2026-05-05 20:03 | 30.49605 | 75.24697 | 37874 ft | 411 kts | 340° |
| 2026-05-05 20:03 | 30.55176 | 75.23110 | 37874 ft | 411 kts | 340° |
| 2026-05-05 20:04 | 30.60741 | 75.21523 | 37869 ft | 412 kts | 340° |
| 2026-05-05 20:04 | 30.66318 | 75.19930 | 37866 ft | 412 kts | 340° |
| 2026-05-05 20:05 | 30.71868 | 75.18343 | 37881 ft | 413 kts | 340° |
| 2026-05-05 20:05 | 30.77418 | 75.16627 | 37860 ft | 409 kts | 333° |
| 2026-05-05 20:06 | 30.82366 | 75.13552 | 37865 ft | 401 kts | 321° |
| 2026-05-05 20:06 | 30.86543 | 75.09333 | 37868 ft | 397 kts | 314° |
| 2026-05-05 20:07 | 30.90558 | 75.04912 | 37857 ft | 397 kts | 314° |
| 2026-05-05 20:07 | 30.94581 | 75.00494 | 37873 ft | 398 kts | 314° |
| 2026-05-05 20:08 | 30.98622 | 74.96076 | 37873 ft | 398 kts | 314° |
| 2026-05-05 20:08 | 31.02671 | 74.91655 | 37872 ft | 399 kts | 314° |
| 2026-05-05 20:09 | 31.06715 | 74.87234 | 37866 ft | 398 kts | 314° |
| 2026-05-05 20:09 | 31.10732 | 74.82838 | 37869 ft | 398 kts | 314° |
| 2026-05-05 20:10 | 31.14762 | 74.78422 | 37871 ft | 398 kts | 314° |
| 2026-05-05 20:10 | 31.18800 | 74.73992 | 37874 ft | 398 kts | 314° |
| 2026-05-05 20:11 | 31.22832 | 74.69561 | 37872 ft | 398 kts | 314° |
| 2026-05-05 20:11 | 31.26869 | 74.65121 | 37872 ft | 398 kts | 314° |
| 2026-05-05 20:12 | 31.30902 | 74.60680 | 37866 ft | 398 kts | 314° |
| 2026-05-05 20:12 | 31.34956 | 74.56258 | 37862 ft | 399 kts | 317° |
| 2026-05-05 20:13 | 31.39352 | 74.52270 | 37862 ft | 400 kts | 319° |
| 2026-05-05 20:13 | 31.43789 | 74.48323 | 37866 ft | 401 kts | 319° |
| 2026-05-05 20:14 | 31.48221 | 74.44361 | 37859 ft | 401 kts | 319° |
| 2026-05-05 20:14 | 31.52625 | 74.40402 | 37858 ft | 401 kts | 319° |
| 2026-05-05 20:15 | 31.57053 | 74.36410 | 37859 ft | 402 kts | 319° |
| 2026-05-05 20:15 | 31.61478 | 74.32415 | 37855 ft | 401 kts | 319° |
| 2026-05-05 20:16 | 31.65895 | 74.28422 | 37881 ft | 401 kts | 319° |
| 2026-05-05 20:16 | 31.70321 | 74.24416 | 37873 ft | 401 kts | 319° |
| 2026-05-05 20:16 | 31.72540 | 74.22406 | 37590 ft | 403 kts | 319° |
| 2026-05-05 20:17 | 31.74755 | 74.20398 | 37346 ft | 401 kts | 320° |
| 2026-05-05 20:17 | 31.76968 | 74.18391 | 37088 ft | 401 kts | 320° |
| 2026-05-05 20:17 | 31.79173 | 74.16389 | 36841 ft | 402 kts | 320° |
| 2026-05-05 20:17 | 31.81391 | 74.14375 | 36590 ft | 403 kts | 320° |
| 2026-05-05 20:18 | 31.83603 | 74.12365 | 36006 ft | 402 kts | 320° |
| 2026-05-05 20:18 | 31.85804 | 74.10364 | 35561 ft | 398 kts | 320° |
| 2026-05-05 20:18 | 31.87992 | 74.08374 | 35132 ft | 396 kts | 320° |
| 2026-05-05 20:18 | 31.90162 | 74.06399 | 34662 ft | 394 kts | 321° |
| 2026-05-05 20:19 | 31.92296 | 74.04455 | 34227 ft | 392 kts | 321° |
| 2026-05-05 20:19 | 31.94446 | 74.02495 | 33754 ft | 390 kts | 321° |
| 2026-05-05 20:19 | 31.96588 | 74.00541 | 33268 ft | 388 kts | 321° |
| 2026-05-05 20:19 | 31.98708 | 73.98606 | 32807 ft | 384 kts | 321° |
| 2026-05-05 20:20 | 32.00809 | 73.96688 | 32376 ft | 381 kts | 321° |
| 2026-05-05 20:20 | 32.02893 | 73.94784 | 31960 ft | 377 kts | 322° |
| 2026-05-05 20:20 | 32.04956 | 73.92897 | 31552 ft | 374 kts | 322° |
| 2026-05-05 20:20 | 32.07004 | 73.91024 | 31139 ft | 371 kts | 322° |
| 2026-05-05 20:21 | 32.09031 | 73.89169 | 30739 ft | 368 kts | 322° |
| 2026-05-05 20:21 | 32.11048 | 73.87321 | 30338 ft | 365 kts | 322° |
| 2026-05-05 20:21 | 32.13046 | 73.85490 | 29945 ft | 363 kts | 322° |
| 2026-05-05 20:21 | 32.15034 | 73.83667 | 29469 ft | 360 kts | 322° |
| 2026-05-05 20:22 | 32.17006 | 73.81858 | 29032 ft | 357 kts | 322° |
| 2026-05-05 20:22 | 32.18957 | 73.80067 | 28613 ft | 353 kts | 322° |
| 2026-05-05 20:22 | 32.20887 | 73.78294 | 28207 ft | 349 kts | 322° |
| 2026-05-05 20:22 | 32.22798 | 73.76539 | 27802 ft | 347 kts | 322° |
| 2026-05-05 20:23 | 32.24690 | 73.74799 | 27398 ft | 344 kts | 322° |
| 2026-05-05 20:23 | 32.26572 | 73.73067 | 27003 ft | 341 kts | 322° |
| 2026-05-05 20:23 | 32.28437 | 73.71351 | 26607 ft | 339 kts | 322° |
| 2026-05-05 20:23 | 32.30266 | 73.69667 | 26229 ft | 336 kts | 322° |
| 2026-05-05 20:24 | 32.32110 | 73.67967 | 25843 ft | 334 kts | 322° |
| 2026-05-05 20:24 | 32.33939 | 73.66281 | 25466 ft | 333 kts | 322° |
| 2026-05-05 20:24 | 32.35756 | 73.64606 | 25083 ft | 331 kts | 322° |
| 2026-05-05 20:24 | 32.37570 | 73.62931 | 24712 ft | 329 kts | 322° |
| 2026-05-05 20:25 | 32.39371 | 73.61269 | 24343 ft | 328 kts | 322° |
| 2026-05-05 20:25 | 32.41169 | 73.59608 | 23974 ft | 327 kts | 322° |
| 2026-05-05 20:25 | 32.42960 | 73.57952 | 23604 ft | 326 kts | 322° |
| 2026-05-05 20:25 | 32.44749 | 73.56297 | 23172 ft | 326 kts | 322° |
| 2026-05-05 20:26 | 32.46529 | 73.54650 | 22764 ft | 325 kts | 322° |
| 2026-05-05 20:26 | 32.48305 | 73.53006 | 22375 ft | 323 kts | 322° |
| 2026-05-05 20:26 | 32.50065 | 73.51376 | 22004 ft | 320 kts | 322° |
| 2026-05-05 20:26 | 32.51817 | 73.49752 | 21642 ft | 318 kts | 322° |
| 2026-05-05 20:27 | 32.53553 | 73.48142 | 21272 ft | 316 kts | 322° |
| 2026-05-05 20:27 | 32.55283 | 73.46538 | 20914 ft | 315 kts | 322° |
| 2026-05-05 20:27 | 32.57002 | 73.44942 | 20556 ft | 313 kts | 322° |
| 2026-05-05 20:27 | 32.58709 | 73.43358 | 20205 ft | 311 kts | 322° |
| 2026-05-05 20:28 | 32.60411 | 73.41776 | 19848 ft | 310 kts | 322° |
| 2026-05-05 20:28 | 32.62107 | 73.40200 | 19496 ft | 309 kts | 322° |
| 2026-05-05 20:28 | 32.63797 | 73.38628 | 19144 ft | 308 kts | 322° |
| 2026-05-05 20:28 | 32.65483 | 73.37059 | 18797 ft | 307 kts | 322° |
| 2026-05-05 20:29 | 32.67158 | 73.35500 | 18450 ft | 306 kts | 322° |
| 2026-05-05 20:29 | 32.68811 | 73.33960 | 18094 ft | 305 kts | 322° |
| 2026-05-05 20:29 | 32.70482 | 73.32403 | 17697 ft | 304 kts | 322° |
| 2026-05-05 20:29 | 32.72143 | 73.30854 | 17330 ft | 303 kts | 322° |
| 2026-05-05 20:30 | 32.73796 | 73.29313 | 16963 ft | 301 kts | 322° |
| 2026-05-05 20:30 | 32.75440 | 73.27781 | 16614 ft | 300 kts | 323° |
| 2026-05-05 20:30 | 32.77251 | 73.26590 | 16253 ft | 299 kts | 341° |
| 2026-05-05 20:30 | 32.79276 | 73.26062 | 15912 ft | 298 kts | 349° |
| 2026-05-05 20:31 | 32.81329 | 73.25718 | 15553 ft | 298 kts | 351° |
| 2026-05-05 20:31 | 32.83378 | 73.25408 | 15203 ft | 297 kts | 351° |
| 2026-05-05 20:31 | 32.85421 | 73.25098 | 14859 ft | 296 kts | 351° |
| 2026-05-05 20:31 | 32.87459 | 73.24782 | 14519 ft | 295 kts | 350° |
| 2026-05-05 20:32 | 32.89488 | 73.24460 | 14179 ft | 294 kts | 350° |
| 2026-05-05 20:32 | 32.91514 | 73.24133 | 13838 ft | 293 kts | 350° |
| 2026-05-05 20:32 | 32.93531 | 73.23804 | 13475 ft | 292 kts | 350° |
| 2026-05-05 20:32 | 32.95544 | 73.23473 | 13128 ft | 291 kts | 350° |
| 2026-05-05 20:33 | 32.97535 | 73.23144 | 12828 ft | 287 kts | 350° |
| 2026-05-05 20:33 | 32.99511 | 73.22817 | 12513 ft | 286 kts | 350° |
| 2026-05-05 20:33 | 33.01482 | 73.22489 | 12168 ft | 285 kts | 350° |
| 2026-05-05 20:33 | 33.03444 | 73.22164 | 11839 ft | 284 kts | 350° |
| 2026-05-05 20:34 | 33.05401 | 73.21838 | 11500 ft | 283 kts | 350° |
| 2026-05-05 20:34 | 33.07320 | 73.21518 | 11182 ft | 282 kts | 350° |
| 2026-05-05 20:34 | 33.09266 | 73.21194 | 10843 ft | 282 kts | 350° |
| 2026-05-05 20:34 | 33.11207 | 73.20870 | 10509 ft | 281 kts | 350° |
| 2026-05-05 20:35 | 33.13134 | 73.20549 | 10304 ft | 276 kts | 350° |
| 2026-05-05 20:35 | 33.15015 | 73.20236 | 10151 ft | 269 kts | 350° |
| 2026-05-05 20:35 | 33.16841 | 73.19932 | 10030 ft | 261 kts | 350° |
| 2026-05-05 20:35 | 33.18633 | 73.19633 | 9796 ft | 259 kts | 350° |
| 2026-05-05 20:36 | 33.20411 | 73.19335 | 9544 ft | 257 kts | 350° |
| 2026-05-05 20:36 | 33.22179 | 73.19038 | 9267 ft | 256 kts | 350° |
| 2026-05-05 20:36 | 33.23348 | 73.18842 | 9089 ft | 255 kts | 350° |
| 2026-05-05 20:36 | 33.25103 | 73.18548 | 8809 ft | 254 kts | 351° |
| 2026-05-05 20:37 | 33.26854 | 73.18254 | 8530 ft | 254 kts | 351° |
| 2026-05-05 20:37 | 33.28602 | 73.17960 | 8251 ft | 253 kts | 351° |
| 2026-05-05 20:37 | 33.30348 | 73.17667 | 7964 ft | 253 kts | 351° |
| 2026-05-05 20:37 | 33.32094 | 73.17373 | 7703 ft | 253 kts | 351° |
| 2026-05-05 20:38 | 33.33839 | 73.17080 | 7406 ft | 254 kts | 351° |
| 2026-05-05 20:38 | 33.35587 | 73.16786 | 7174 ft | 252 kts | 351° |
| 2026-05-05 20:38 | 33.37299 | 73.16499 | 7036 ft | 246 kts | 351° |
| 2026-05-05 20:38 | 33.38969 | 73.16218 | 6917 ft | 239 kts | 351° |
| 2026-05-05 20:39 | 33.40586 | 73.15946 | 6797 ft | 232 kts | 351° |
| 2026-05-05 20:39 | 33.42189 | 73.15693 | 6560 ft | 232 kts | 351° |
| 2026-05-05 20:39 | 33.43787 | 73.15450 | 6343 ft | 231 kts | 352° |
| 2026-05-05 20:39 | 33.45381 | 73.15208 | 6102 ft | 230 kts | 351° |
| 2026-05-05 20:40 | 33.46959 | 73.14893 | 5904 ft | 228 kts | 348° |
| 2026-05-05 20:40 | 33.48469 | 73.14436 | 5781 ft | 221 kts | 333° |
| 2026-05-05 20:40 | 33.49495 | 73.13200 | 5670 ft | 215 kts | 292° |
| 2026-05-05 20:40 | 33.49899 | 73.11476 | 5619 ft | 217 kts | 285° |
| 2026-05-05 20:41 | 33.50292 | 73.09726 | 5513 ft | 218 kts | 285° |
| 2026-05-05 20:41 | 33.50656 | 73.07945 | 5298 ft | 222 kts | 283° |
| 2026-05-05 20:41 | 33.51008 | 73.06152 | 5094 ft | 220 kts | 286° |
| 2026-05-05 20:41 | 33.51390 | 73.04417 | 4930 ft | 213 kts | 284° |
| 2026-05-05 20:42 | 33.51692 | 73.02695 | 4679 ft | 210 kts | 282° |
| 2026-05-05 20:42 | 33.51957 | 73.00988 | 4410 ft | 206 kts | 281° |
| 2026-05-05 20:42 | 33.52213 | 72.99316 | 4159 ft | 202 kts | 281° |
| 2026-05-05 20:42 | 33.52464 | 72.97681 | 3900 ft | 197 kts | 281° |
| 2026-05-05 20:43 | 33.52712 | 72.96079 | 3641 ft | 193 kts | 281° |
| 2026-05-05 20:43 | 33.52953 | 72.94515 | 3394 ft | 189 kts | 281° |
| 2026-05-05 20:43 | 33.53188 | 72.93000 | 3153 ft | 180 kts | 281° |
| 2026-05-05 20:43 | 33.53408 | 72.91577 | 2944 ft | 168 kts | 281° |
| 2026-05-05 20:44 | 33.53610 | 72.90271 | 2733 ft | 153 kts | 281° |
| 2026-05-05 20:44 | 33.53798 | 72.89058 | 2532 ft | 146 kts | 281° |
| 2026-05-05 20:44 | 33.53983 | 72.87867 | 2363 ft | 146 kts | 280° |
| 2026-05-05 20:44 | 33.54169 | 72.86673 | 2168 ft | 145 kts | 279° |
| 2026-05-05 20:45 | 33.54536 | 72.84314 | 1790 ft | 144 kts | 279° |
| 2026-05-05 20:45 | 33.54706 | 72.83216 | 1761 ft | 115 kts | 281° |
| 2026-05-05 20:45 | 33.54826 | 72.82462 | 1756 ft | 57 kts | 278° |
| 2026-05-05 20:46 | 33.54884 | 72.82067 | 1757 ft | 44 kts | 281° |
| 2026-05-05 20:46 | 33.54940 | 72.81826 | 1755 ft | 27 kts | 296° |
| 2026-05-05 20:46 | 33.55043 | 72.81644 | 1761 ft | 24 kts | 309° |
| 2026-05-05 20:46 | 33.55182 | 72.81597 | 1754 ft | 23 kts | 7° |
| 2026-05-05 20:47 | 33.55322 | 72.81651 | 1766 ft | 21 kts | 55° |
| 2026-05-05 20:47 | 33.55313 | 72.81819 | 1768 ft | 21 kts | 101° |
| 2026-05-05 20:47 | 33.55287 | 72.81985 | 1768 ft | 20 kts | 101° |
| 2026-05-05 20:47 | 33.55261 | 72.82145 | 1767 ft | 19 kts | 101° |
| 2026-05-05 20:48 | 33.55238 | 72.82301 | 1769 ft | 19 kts | 100° |
| 2026-05-05 20:48 | 33.55215 | 72.82451 | 1768 ft | 18 kts | 101° |
| 2026-05-05 20:48 | 33.55220 | 72.82575 | 1770 ft | 13 kts | 47° |
| 2026-05-05 20:48 | 33.55305 | 72.82611 | 1772 ft | 13 kts | 11° |
| 2026-05-05 20:49 | 33.55391 | 72.82637 | 1771 ft | 13 kts | 32° |
| 2026-05-05 20:49 | 33.55448 | 72.82714 | 1771 ft | 12 kts | 54° |
| 2026-05-05 20:49 | 33.55496 | 72.82797 | 1769 ft | 11 kts | 56° |
| 2026-05-05 20:49 | 33.55473 | 72.82867 | 1770 ft | 10 kts | 145° |
| 2026-05-05 20:50 | 33.55434 | 72.82900 | 1770 ft | 3 kts | 144° |
| 2026-05-05 20:50 | 33.55433 | 72.82901 | 1770 ft | 0 kts | 144° |